createdAt,value
2022-12-23T00:01:04.050Z,100149.90
2022-12-23T00:03:54.600Z,100145.54
2022-12-23T00:06:45.318Z,100142.42
2022-12-23T00:09:35.823Z,100137.67
2022-12-23T00:12:44.008Z,100133.77
2022-12-23T00:15:34.613Z,100124.78
2022-12-23T00:18:25.247Z,100118.04
2022-12-23T00:21:16.794Z,100120.43
2022-12-23T00:24:07.775Z,100123.31
2022-12-23T00:26:58.351Z,100126.34
2022-12-23T00:29:48.912Z,100132.46
2022-12-23T00:32:39.785Z,100139.50
2022-12-23T00:35:34.520Z,100140.39
2022-12-23T00:38:38.888Z,100134.44
2022-12-23T00:41:47.008Z,100126.37
2022-12-23T00:44:37.642Z,100116.65
2022-12-23T00:47:45.816Z,100106.80
2022-12-23T00:50:37.452Z,100094.71
2022-12-23T00:53:28.260Z,100087.70
2022-12-23T00:56:18.875Z,100086.55
2022-12-23T00:59:09.484Z,100082.17
2022-12-23T01:02:17.632Z,100074.96
2022-12-23T01:05:40.191Z,100070.80
2022-12-23T01:08:30.957Z,100065.80
2022-12-23T01:11:21.651Z,100063.59
2022-12-23T01:14:13.055Z,100059.13
2022-12-23T01:17:03.831Z,100056.34
2022-12-23T01:19:54.517Z,100042.58
2022-12-23T01:22:45.028Z,100029.77
2022-12-23T01:25:37.770Z,100025.36
2022-12-23T01:28:28.871Z,100022.69
2022-12-23T01:31:19.309Z,100013.61
2022-12-23T01:34:10.617Z,100012.31
2022-12-23T01:37:01.306Z,100008.95
2022-12-23T01:39:51.812Z,100002.02
2022-12-23T01:42:45.172Z,99991.11
2022-12-23T01:45:35.807Z,99989.04
2022-12-23T01:48:27.884Z,99997.15
2022-12-23T01:51:21.369Z,99996.94
2022-12-23T01:54:11.630Z,99990.92
2022-12-23T01:57:01.847Z,99991.42
2022-12-23T02:00:09.697Z,99992.60
2022-12-23T02:07:05.136Z,99988.76
2022-12-23T02:09:55.515Z,99992.89
2022-12-23T02:12:47.809Z,99989.54
2022-12-23T02:15:58.587Z,99982.70
2022-12-23T02:23:14.667Z,99985.73
2022-12-23T02:26:16.062Z,99980.82
2022-12-23T02:29:21.583Z,99974.91
2022-12-23T02:32:16.357Z,99976.95
2022-12-23T02:35:12.509Z,99974.52
2022-12-23T02:38:06.127Z,99958.84
2022-12-23T02:41:00.381Z,99942.69
2022-12-23T02:43:53.036Z,99937.23
2022-12-23T02:46:47.616Z,99925.48
2022-12-23T02:49:40.943Z,99914.80
2022-12-23T02:52:34.165Z,99901.95
2022-12-23T02:55:30.886Z,99899.88
2022-12-23T02:58:22.431Z,99897.44
2022-12-23T03:01:15.033Z,99897.41
2022-12-23T03:04:06.848Z,99891.59
2022-12-23T03:07:04.463Z,99887.20
2022-12-23T03:10:04.657Z,99885.61
2022-12-23T03:13:03.289Z,99883.95
2022-12-23T03:15:57.547Z,99884.52
2022-12-23T03:18:54.019Z,99878.84
2022-12-23T03:21:48.416Z,99870.17
2022-12-23T03:24:42.925Z,99860.00
2022-12-23T03:27:37.450Z,99850.45
2022-12-23T03:30:29.058Z,99843.13
2022-12-23T03:33:21.438Z,99840.75
2022-12-23T03:36:15.131Z,99838.05
2022-12-23T03:39:07.257Z,99824.59
2022-12-23T03:42:00.431Z,99814.33
2022-12-23T03:45:28.069Z,99805.89
2022-12-23T03:48:05.443Z,99807.90
2022-12-23T03:50:59.383Z,99805.73
2022-12-23T03:53:53.061Z,99800.67
2022-12-23T03:56:45.889Z,99784.70
2022-12-23T03:59:37.668Z,99766.97
2022-12-23T04:02:34.166Z,99755.20
2022-12-23T04:05:27.599Z,99752.91
2022-12-23T04:08:21.442Z,99749.09
2022-12-23T04:11:12.769Z,99752.52
2022-12-23T04:14:05.578Z,99750.80
2022-12-23T04:16:58.427Z,99742.42
2022-12-23T04:19:49.066Z,99739.88
2022-12-23T04:22:39.743Z,99734.31
2022-12-23T04:25:30.175Z,99723.20
2022-12-23T04:28:21.329Z,99715.30
2022-12-23T04:31:11.819Z,99719.45
2022-12-23T04:34:02.143Z,99716.83
2022-12-23T04:36:52.771Z,99707.50
2022-12-23T04:39:43.240Z,99688.82
2022-12-23T04:42:33.897Z,99677.04
2022-12-23T04:45:24.457Z,99669.62
2022-12-23T04:48:15.031Z,99659.67
2022-12-23T04:51:05.823Z,99648.56
2022-12-23T04:53:56.917Z,99637.24
2022-12-23T04:56:47.424Z,99632.50
2022-12-23T04:59:38.027Z,99628.85
2022-12-23T05:02:28.906Z,99618.52
2022-12-23T05:05:19.740Z,99613.08
2022-12-23T05:08:10.036Z,99608.81
2022-12-23T05:11:00.931Z,99603.82
2022-12-23T05:13:51.384Z,99598.03
2022-12-23T05:16:41.869Z,99593.20
2022-12-23T05:19:33.231Z,99576.52
2022-12-23T05:22:23.883Z,99566.94
2022-12-23T05:25:15.996Z,99568.14
2022-12-23T05:28:08.135Z,99559.73
2022-12-23T05:31:00.996Z,99554.23
2022-12-23T05:33:51.538Z,99556.86
2022-12-23T05:36:51.188Z,99549.54
2022-12-23T05:39:41.763Z,99545.30
2022-12-23T05:42:34.521Z,99541.87
2022-12-23T05:45:25.210Z,99542.48
2022-12-23T05:48:28.984Z,99533.42
2022-12-23T05:51:19.653Z,99523.48
2022-12-23T05:59:12.639Z,99497.02
2022-12-23T06:02:03.196Z,99490.95
2022-12-23T06:04:57.494Z,99486.85
2022-12-23T06:07:48.110Z,99481.85
2022-12-23T06:14:54.215Z,99470.77
2022-12-23T06:18:22.399Z,99456.71
2022-12-23T06:21:14.803Z,99446.05
2022-12-23T06:24:21.128Z,99433.07
2022-12-23T06:27:12.217Z,99422.21
2022-12-23T06:34:30.755Z,99404.50
2022-12-23T06:37:21.392Z,99401.73
2022-12-23T06:40:17.108Z,99392.14
2022-12-23T06:43:11.023Z,99380.23
2022-12-23T06:55:59.025Z,99370.23
2022-12-23T06:58:49.573Z,99367.32
2022-12-23T07:32:44.427Z,99390.05
2022-12-23T07:36:00.343Z,99386.60
2022-12-23T07:38:52.580Z,99383.08
2022-12-23T07:42:33.920Z,99372.94
2022-12-23T07:45:31.526Z,99364.76
2022-12-23T07:52:27.198Z,99354.48
2022-12-23T07:56:06.073Z,99343.11
2022-12-23T07:58:56.821Z,99331.35
2022-12-23T08:02:09.652Z,99316.95
2022-12-23T08:05:04.120Z,99312.10
2022-12-23T08:12:49.320Z,99301.90
2022-12-23T08:16:18.331Z,99302.83
2022-12-23T10:26:52.917Z,99182.35
2022-12-23T10:29:43.918Z,99179.62
2022-12-23T10:37:31.190Z,99166.98
2022-12-23T10:40:25.311Z,99168.19
2022-12-23T10:43:20.301Z,99161.52
2022-12-23T10:46:16.787Z,99154.48
2022-12-23T10:49:15.769Z,99159.37
2022-12-23T10:52:10.349Z,99160.30
2022-12-23T10:55:01.007Z,99161.51
2022-12-23T10:57:55.627Z,99163.42
2022-12-23T11:18:22.945Z,99142.73
2022-12-23T11:21:44.558Z,99137.85
2022-12-23T11:24:42.749Z,99138.20
2022-12-23T11:28:59.897Z,99138.89
2022-12-23T11:31:53.971Z,99140.37
2022-12-23T11:34:46.994Z,99135.14
2022-12-23T11:37:42.304Z,99131.23
2022-12-23T11:40:35.424Z,99129.66
2022-12-23T11:43:27.425Z,99126.98
2022-12-23T11:46:25.470Z,99123.08
2022-12-23T11:49:18.647Z,99121.96
2022-12-23T11:52:15.073Z,99122.55
2022-12-23T11:55:07.236Z,99125.42
2022-12-23T11:57:58.197Z,99126.89
2022-12-23T12:00:56.068Z,99123.88
2022-12-23T12:03:50.011Z,99127.75
2022-12-23T12:06:49.592Z,99122.83
2022-12-23T12:09:45.955Z,99136.09
2022-12-23T12:12:57.625Z,99150.63
2022-12-23T12:19:20.800Z,99141.77
2022-12-23T12:26:02.639Z,99141.98
2022-12-23T12:29:16.748Z,99145.58
2022-12-23T12:36:14.225Z,99146.09
2022-12-23T12:39:05.124Z,99150.19
2022-12-23T12:42:03.593Z,99155.67
2022-12-23T13:21:13.281Z,99160.24
2022-12-23T13:51:52.810Z,99178.38
2022-12-23T14:09:04.563Z,99205.52
2022-12-23T14:12:00.984Z,99211.73
2022-12-23T14:19:59.094Z,99232.96
2022-12-23T14:32:54.383Z,99258.40
2022-12-23T14:49:41.074Z,99273.19
2022-12-23T14:53:45.288Z,99273.58
2022-12-23T15:17:45.724Z,99286.56
2022-12-23T15:20:37.394Z,99297.11
2022-12-23T15:23:28.032Z,99300.66
2022-12-23T15:26:18.716Z,99299.14
2022-12-23T15:29:10.336Z,99308.95
2022-12-23T15:32:18.131Z,99314.39
2022-12-23T15:58:14.633Z,99346.88
2022-12-23T16:01:05.691Z,99358.11
2022-12-23T16:03:58.263Z,99366.76
2022-12-23T16:06:51.367Z,99372.38
2022-12-23T16:09:41.833Z,99374.63
2022-12-23T16:12:34.271Z,99377.76
2022-12-23T16:15:27.935Z,99381.59
2022-12-23T16:18:23.774Z,99382.40
2022-12-23T16:21:17.958Z,99387.67
2022-12-23T16:39:02.410Z,99407.93
2022-12-23T16:41:53.013Z,99407.23
2022-12-23T18:05:14.349Z,99475.95
2022-12-23T18:12:38.083Z,99496.69
2022-12-23T18:15:31.640Z,99492.29
2022-12-23T22:55:36.784Z,99787.61
